Time,TemperatureF,DewpointF,PressureIn,WindDirection,WindDirectionDegrees,WindSpeedMPH,WindSpeedGustMPH,Humidity,HourlyPrecipIn,Conditions,Clouds,dailyrainin,SoftwareType,DateUTC
2013-10-25 00:14:00,64.0,58.0,30.14,North,9,0.0,1.0,82,0.00,,,0.00,,2013-10-25 04:14:00,
2013-10-25 00:24:00,64.0,58.0,30.14,North,9,0.0,3.0,82,0.00,,,0.00,,2013-10-25 04:24:00,
2013-10-25 00:44:00,64.0,59.0,30.14,North,9,0.0,0.0,83,0.00,,,0.00,,2013-10-25 04:44:00,
2013-10-25 00:54:00,64.0,59.0,30.14,North,9,0.0,0.0,83,0.00,,,0.00,,2013-10-25 04:54:00,
2013-10-25 01:03:00,64.0,59.0,30.14,North,9,0.0,0.0,83,0.00,,,0.00,,2013-10-25 05:03:00,
2013-10-25 09:11:00,63.0,59.0,30.19,North,5,0.0,5.0,86,0.00,,,0.00,,2013-10-25 13:11:00,
2013-10-25 09:21:00,64.0,58.0,30.19,North,11,2.0,5.0,81,0.00,,,0.00,,2013-10-25 13:21:00,
2013-10-25 09:42:00,65.0,59.0,30.20,North,5,0.0,5.0,80,0.00,,,0.00,,2013-10-25 13:42:00,
2013-10-25 09:52:00,67.0,60.0,30.20,North,5,0.0,5.0,79,0.00,,,0.00,,2013-10-25 13:52:00,
2013-10-25 10:22:00,69.0,60.0,30.21,NNW,343,1.0,5.0,74,0.00,,,0.00,,2013-10-25 14:22:00,
2013-10-25 10:42:00,71.0,60.0,30.21,NNW,343,1.0,6.0,69,0.00,,,0.00,,2013-10-25 14:42:00,
2013-10-25 10:52:00,72.0,59.0,30.21,North,355,2.0,7.0,64,0.00,,,0.00,,2013-10-25 14:52:00,
2013-10-25 11:11:00,73.0,57.0,30.21,North,355,2.0,9.0,58,0.00,,,0.00,,2013-10-25 15:11:00,
2013-10-25 11:21:00,75.0,57.0,30.21,North,350,5.0,10.0,54,0.00,,,0.00,,2013-10-25 15:21:00,
2013-10-25 11:53:00,77.0,56.0,30.20,North,351,3.0,9.0,48,0.00,,,0.00,,2013-10-25 15:53:00,
2013-10-25 12:13:00,77.0,56.0,30.19,North,355,2.0,11.0,48,0.00,,,0.00,,2013-10-25 16:13:00,
2013-10-25 12:23:00,78.0,58.0,30.20,North,355,2.0,8.0,50,0.00,,,0.00,,2013-10-25 16:23:00,
2013-10-25 12:43:00,78.0,57.0,30.19,North,360,3.0,8.0,48,0.00,,,0.00,,2013-10-25 16:43:00,
2013-10-25 12:53:00,79.0,57.0,30.18,North,349,4.0,12.0,47,0.00,,,0.00,,2013-10-25 16:53:00,
2013-10-25 13:13:00,79.0,55.0,30.18,North,355,5.0,12.0,43,0.00,,,0.00,,2013-10-25 17:13:00,
2013-10-25 13:23:00,80.0,56.0,30.17,North,355,5.0,10.0,44,0.00,,,0.00,,2013-10-25 17:23:00,
2013-10-25 13:43:00,80.0,56.0,30.17,North,355,3.0,7.0,44,0.00,,,0.00,,2013-10-25 17:43:00,
2013-10-25 13:52:00,80.0,59.0,30.16,NNW,346,2.0,8.0,48,0.00,,,0.00,,2013-10-25 17:52:00,
2013-10-25 14:12:00,80.0,57.0,30.15,North,355,2.0,9.0,45,0.00,,,0.00,,2013-10-25 18:12:00,
2013-10-25 14:22:00,81.0,58.0,30.14,North,355,3.0,7.0,45,0.00,,,0.00,,2013-10-25 18:22:00,
2013-10-25 14:52:00,81.0,58.0,30.13,North,5,3.0,10.0,45,0.00,,,0.00,,2013-10-25 18:52:00,
2013-10-25 15:11:00,81.0,58.0,30.13,North,355,0.0,6.0,46,0.00,,,0.00,,2013-10-25 19:11:00,
2013-10-25 15:22:00,82.0,57.0,30.13,North,355,0.0,7.0,43,0.00,,,0.00,,2013-10-25 19:22:00,
2013-10-25 15:42:00,82.0,59.0,30.13,NNW,344,0.0,8.0,46,0.00,,,0.00,,2013-10-25 19:42:00,
2013-10-25 15:52:00,82.0,59.0,30.12,North,5,1.0,8.0,45,0.00,,,0.00,,2013-10-25 19:52:00,
2013-10-25 16:12:00,82.0,58.0,30.12,NNW,333,1.0,10.0,44,0.00,,,0.00,,2013-10-25 20:12:00,
2013-10-25 16:22:00,82.0,57.0,30.12,North,360,2.0,10.0,43,0.00,,,0.00,,2013-10-25 20:22:00,
2013-10-25 16:52:00,82.0,58.0,30.11,North,360,2.0,7.0,44,0.00,,,0.00,,2013-10-25 20:52:00,
2013-10-25 17:11:00,81.0,59.0,30.11,NNW,335,1.0,9.0,47,0.00,,,0.00,,2013-10-25 21:11:00,
2013-10-25 17:22:00,81.0,59.0,30.11,NNW,346,2.0,5.0,48,0.00,,,0.00,,2013-10-25 21:22:00,
2013-10-25 17:43:00,81.0,58.0,30.11,NNW,348,2.0,7.0,46,0.00,,,0.00,,2013-10-25 21:43:00,
2013-10-25 17:54:00,80.0,59.0,30.11,NNW,342,0.0,6.0,49,0.00,,,0.00,,2013-10-25 21:54:00,
2013-10-25 18:24:00,79.0,58.0,30.11,North,5,1.0,7.0,48,0.00,,,0.00,,2013-10-25 22:24:00,
2013-10-25 18:42:00,78.0,59.0,30.11,NNW,336,0.0,4.0,53,0.00,,,0.00,,2013-10-25 22:42:00,
2013-10-25 18:53:00,77.0,60.0,30.11,NNW,344,0.0,3.0,56,0.00,,,0.00,,2013-10-25 22:53:00,
2013-10-25 19:12:00,76.0,61.0,30.12,NNW,344,0.0,1.0,60,0.00,,,0.00,,2013-10-25 23:12:00,
2013-10-25 19:23:00,75.0,61.0,30.13,NNW,344,0.0,3.0,61,0.00,,,0.00,,2013-10-25 23:23:00,
2013-10-25 19:42:00,74.0,61.0,30.13,NNW,344,0.0,1.0,64,0.00,,,0.00,,2013-10-25 23:42:00,
2013-10-25 19:52:00,73.0,61.0,30.13,NNW,344,0.0,1.0,67,0.00,,,0.00,,2013-10-25 23:52:00,
2013-10-25 20:11:00,73.0,62.0,30.13,NNW,344,0.0,3.0,68,0.00,,,0.00,,2013-10-26 00:11:00,
2013-10-25 20:22:00,73.0,62.0,30.13,NNW,344,0.0,3.0,69,0.00,,,0.00,,2013-10-26 00:22:00,
2013-10-25 20:42:00,72.0,62.0,30.13,NNW,344,0.0,0.0,71,0.00,,,0.00,,2013-10-26 00:42:00,
2013-10-25 20:52:00,71.0,62.0,30.14,NNW,344,0.0,0.0,72,0.00,,,0.00,,2013-10-26 00:52:00,
2013-10-25 21:12:00,71.0,62.0,30.14,NNW,344,0.0,0.0,74,0.00,,,0.00,,2013-10-26 01:12:00,
2013-10-25 21:22:00,70.0,62.0,30.14,NNW,344,0.0,0.0,75,0.00,,,0.00,,2013-10-26 01:22:00,
2013-10-25 21:52:00,70.0,62.0,30.16,NNW,344,0.0,0.0,77,0.00,,,0.00,,2013-10-26 01:52:00,
2013-10-25 22:12:00,69.0,62.0,30.16,NNW,344,0.0,3.0,78,0.00,,,0.00,,2013-10-26 02:12:00,
2013-10-25 22:22:00,69.0,61.0,30.16,NNW,344,0.0,0.0,76,0.00,,,0.00,,2013-10-26 02:22:00,
2013-10-25 22:43:00,69.0,61.0,30.17,NNW,344,0.0,0.0,77,0.00,,,0.00,,2013-10-26 02:43:00,
2013-10-25 22:52:00,68.0,61.0,30.17,NNW,344,0.0,0.0,77,0.00,,,0.00,,2013-10-26 02:52:00,
2013-10-25 23:12:00,68.0,61.0,30.17,NNW,344,0.0,0.0,78,0.00,,,0.00,,2013-10-26 03:12:00,
2013-10-25 23:22:00,67.0,60.0,30.18,NNW,344,0.0,0.0,79,0.00,,,0.00,,2013-10-26 03:22:00,
2013-10-25 23:54:00,67.0,61.0,30.17,NNW,344,0.0,0.0,82,0.00,,,0.00,,2013-10-26 03:54:00,